Time;durP1;ratioP1;P1;durP2;ratioP2;P2;SDS_P1;SDS_P2;PMS_P1;PMS_P2;Temp;Humidity;BMP_temperature;BMP_pressure;BME280_temperature;BME280_humidity;BME280_pressure;Samples;Min_cycle;Max_cycle;Signal;HPM_P1;HPM_P2
2023/06/29 00:00:23;;;;;;;0.30;0.30;;;18.90;99.90;;;;;;5138504;27;20130;-71
2023/06/29 00:02:49;;;;;;;0.40;0.40;;;18.90;99.90;;;;;;5138267;27;20073;-70
2023/06/29 00:05:15;;;;;;;0.40;0.40;;;18.90;99.90;;;;;;5138081;27;20463;-71
2023/06/29 00:07:41;;;;;;;0.30;0.30;;;18.90;99.90;;;;;;5138373;27;20039;-71
2023/06/29 00:10:09;;;;;;;0.30;0.30;;;18.90;99.90;;;;;;5138298;27;20047;-71
2023/06/29 00:12:35;;;;;;;0.40;0.40;;;18.90;99.90;;;;;;5138449;27;20365;-71
2023/06/29 00:15:01;;;;;;;;;;;18.90;99.90;;;;;;5138372;27;20118;-71
2023/06/29 00:17:27;;;;;;;0.30;0.30;;;18.90;99.90;;;;;;5138182;27;19962;-72
2023/06/29 00:19:52;;;;;;;0.37;0.37;;;18.90;99.90;;;;;;5138247;27;20035;-70
2023/06/29 00:22:18;;;;;;;0.40;0.40;;;18.90;99.90;;;;;;5138500;27;20035;-71
2023/06/29 00:24:54;;;;;;;0.30;0.30;;;18.90;99.90;;;;;;5138145;27;20061;-71
2023/06/29 00:27:20;;;;;;;0.30;0.30;;;18.90;99.90;;;;;;5138048;27;20039;-71
2023/06/29 00:29:46;;;;;;;0.47;0.47;;;18.80;99.90;;;;;;5137964;27;20039;-72
2023/06/29 00:32:12;;;;;;;0.30;0.30;;;18.80;99.90;;;;;;5137843;27;20087;-71
2023/06/29 00:34:38;;;;;;;0.73;0.70;;;18.80;99.90;;;;;;5137874;27;20043;-71
2023/06/29 00:37:04;;;;;;;0.30;0.30;;;18.80;99.90;;;;;;5137780;27;20039;-72
2023/06/29 00:39:31;;;;;;;0.30;0.30;;;18.80;99.90;;;;;;5137856;27;20047;-71
2023/06/29 00:41:57;;;;;;;0.40;0.40;;;18.80;99.90;;;;;;5137743;27;20031;-71
2023/06/29 00:44:23;;;;;;;0.30;0.30;;;18.80;99.90;;;;;;5137637;27;20053;-71
2023/06/29 00:46:51;;;;;;;0.40;0.40;;;18.80;99.90;;;;;;5137577;27;20042;-70
2023/06/29 00:49:18;;;;;;;0.30;0.30;;;18.80;99.90;;;;;;5137979;27;20034;-71
2023/06/29 00:51:49;;;;;;;0.40;0.40;;;18.80;99.90;;;;;;5137688;27;20039;-72
2023/06/29 00:54:18;;;;;;;0.30;0.30;;;18.80;99.90;;;;;;5137495;27;20042;-71
2023/06/29 00:56:44;;;;;;;0.30;0.30;;;18.80;99.90;;;;;;5137345;27;20035;-71
2023/06/29 00:59:10;;;;;;;0.30;0.30;;;18.80;99.90;;;;;;5137118;27;20043;-71
2023/06/29 01:01:39;;;;;;;0.30;0.30;;;18.80;99.90;;;;;;5137582;27;20041;-70
2023/06/29 01:04:05;;;;;;;0.30;0.30;;;18.80;99.90;;;;;;5137346;27;20353;-70
2023/06/29 01:06:40;;;;;;;0.30;0.30;;;18.80;99.90;;;;;;5136165;27;20117;-72
2023/06/29 01:09:08;;;;;;;0.30;0.30;;;18.80;99.90;;;;;;5137109;27;20469;-71
2023/06/29 01:11:36;;;;;;;0.30;0.30;;;18.80;99.90;;;;;;5137144;27;20085;-71
2023/06/29 01:14:05;;;;;;;0.30;0.30;;;18.80;99.90;;;;;;5136998;27;20047;-71
2023/06/29 01:16:35;;;;;;;0.30;0.30;;;18.80;99.90;;;;;;5136703;27;20041;-70
2023/06/29 01:19:04;;;;;;;0.30;0.30;;;18.70;99.90;;;;;;5137014;27;20043;-71
2023/06/29 01:21:34;;;;;;;0.30;0.30;;;18.80;99.90;;;;;;5136965;27;20031;-71
2023/06/29 01:24:01;;;;;;;0.30;0.30;;;18.80;99.90;;;;;;5137077;27;20047;-71
2023/06/29 01:26:27;;;;;;;;;;;18.80;99.90;;;;;;5137082;27;20038;-71
2023/06/29 01:28:52;;;;;;;0.30;0.30;;;18.70;99.90;;;;;;5136808;27;19915;-71
2023/06/29 01:31:18;;;;;;;0.30;0.30;;;18.80;99.90;;;;;;5136801;27;20393;-71
2023/06/29 01:33:45;;;;;;;0.30;0.30;;;18.70;99.90;;;;;;5152942;27;20083;-71
2023/06/29 01:36:10;;;;;;;;;;;18.70;99.90;;;;;;5137374;27;20057;-71
2023/06/29 01:38:42;;;;;;;0.30;0.30;;;18.70;99.90;;;;;;5136796;27;19916;-70
2023/06/29 01:41:12;;;;;;;0.30;0.30;;;18.70;99.90;;;;;;5136536;27;20080;-71
2023/06/29 01:43:38;;;;;;;0.30;0.30;;;18.70;99.90;;;;;;5136975;27;20072;-71
2023/06/29 01:46:04;;;;;;;0.53;0.53;;;18.70;99.90;;;;;;5136913;27;20122;-70
2023/06/29 01:48:31;;;;;;;0.30;0.30;;;18.70;99.90;;;;;;5136110;27;20467;-71
2023/06/29 01:50:56;;;;;;;0.30;0.30;;;18.70;99.90;;;;;;5136431;27;20164;-71
2023/06/29 01:53:22;;;;;;;0.30;0.30;;;18.70;99.90;;;;;;5136398;27;20570;-70
2023/06/29 01:55:48;;;;;;;0.30;0.30;;;18.70;99.90;;;;;;5136208;27;20478;-71
2023/06/29 01:58:13;;;;;;;0.30;0.30;;;18.70;99.90;;;;;;5136136;27;20459;-71
2023/06/29 02:00:39;;;;;;;0.30;0.30;;;18.70;99.90;;;;;;5136058;27;20027;-70
2023/06/29 02:03:05;;;;;;;0.30;0.30;;;18.70;99.90;;;;;;5117457;27;20047;-70
2023/06/29 02:05:30;;;;;;;0.40;0.40;;;18.70;99.90;;;;;;5136065;27;20046;-70
2023/06/29 02:07:56;;;;;;;0.33;0.33;;;18.60;99.90;;;;;;5136097;27;20057;-70
2023/06/29 02:10:21;;;;;;;0.30;0.30;;;18.60;99.90;;;;;;5135907;27;20039;-71
2023/06/29 02:12:47;;;;;;;0.30;0.30;;;18.60;99.90;;;;;;5135954;27;20039;-70
2023/06/29 02:15:13;;;;;;;0.40;0.40;;;18.60;99.90;;;;;;5135944;27;20035;-71
2023/06/29 02:17:38;;;;;;;0.30;0.30;;;18.60;99.90;;;;;;5135748;27;20421;-71
2023/06/29 02:20:07;;;;;;;0.30;0.30;;;18.60;99.90;;;;;;5135824;27;20039;-70
2023/06/29 02:22:33;;;;;;;2.75;0.95;;;18.60;99.90;;;;;;5135819;27;20104;-71
2023/06/29 02:24:58;;;;;;;0.30;0.30;;;18.60;99.90;;;;;;5135621;27;20455;-71
2023/06/29 02:27:24;;;;;;;0.30;0.30;;;18.60;99.90;;;;;;5135665;27;20038;-70
2023/06/29 02:29:49;;;;;;;0.30;0.30;;;18.60;99.90;;;;;;5135645;27;20121;-71
2023/06/29 02:32:15;;;;;;;0.30;0.30;;;18.60;99.90;;;;;;5135604;27;20131;-71
2023/06/29 02:34:41;;;;;;;0.30;0.30;;;18.60;99.90;;;;;;5135576;27;20180;-70
2023/06/29 02:37:06;;;;;;;0.40;0.40;;;18.60;99.90;;;;;;5135198;27;20046;-70
2023/06/29 02:39:32;;;;;;;0.30;0.30;;;18.60;99.90;;;;;;5135449;27;20031;-71
2023/06/29 02:41:57;;;;;;;0.40;0.40;;;18.60;99.90;;;;;;5135419;27;20039;-70
2023/06/29 02:44:23;;;;;;;0.30;0.30;;;18.60;99.90;;;;;;5135555;27;20035;-72
2023/06/29 02:46:49;;;;;;;0.30;0.30;;;18.60;99.90;;;;;;5117370;27;20175;-70
2023/06/29 02:49:15;;;;;;;0.40;0.40;;;18.60;99.90;;;;;;5135318;27;20463;-71
2023/06/29 02:51:41;;;;;;;0.47;0.47;;;18.60;99.90;;;;;;5135193;27;20043;-70
2023/06/29 02:54:06;;;;;;;0.30;0.30;;;18.60;99.90;;;;;;5135186;27;20130;-70
2023/06/29 02:56:32;;;;;;;0.60;0.60;;;18.60;99.90;;;;;;5134929;27;20067;-71
2023/06/29 02:58:59;;;;;;;0.30;0.30;;;18.60;99.90;;;;;;5135120;27;20031;-70
2023/06/29 03:01:25;;;;;;;1.65;0.80;;;18.60;99.90;;;;;;5134990;27;20046;-71
2023/06/29 03:03:50;;;;;;;0.33;0.33;;;18.60;99.90;;;;;;5134847;27;20455;-71
2023/06/29 03:06:16;;;;;;;0.30;0.30;;;18.60;99.90;;;;;;5134925;27;20093;-70
2023/06/29 03:08:42;;;;;;;0.30;0.30;;;18.60;99.90;;;;;;5134945;27;20416;-72
2023/06/29 03:11:07;;;;;;;0.30;0.30;;;18.60;99.90;;;;;;5134815;27;20039;-71
2023/06/29 03:13:33;;;;;;;0.60;0.60;;;18.60;99.90;;;;;;5135295;27;20100;-70
2023/06/29 03:16:00;;;;;;;0.30;0.30;;;18.60;99.90;;;;;;5134827;27;20039;-70
2023/06/29 03:18:27;;;;;;;0.30;0.30;;;18.60;99.90;;;;;;5134645;27;20399;-70
2023/06/29 03:20:53;;;;;;;0.80;0.80;;;18.60;99.90;;;;;;5135330;27;20122;-71
2023/06/29 03:23:19;;;;;;;0.30;0.30;;;18.60;99.90;;;;;;5134738;27;20043;-70
2023/06/29 03:25:44;;;;;;;0.30;0.30;;;18.60;99.90;;;;;;5134655;27;20367;-71
2023/06/29 03:28:10;;;;;;;0.30;0.30;;;18.60;99.90;;;;;;5134169;27;20091;-71
2023/06/29 03:30:35;;;;;;;0.40;0.40;;;18.60;99.90;;;;;;5135113;28;20114;-71
2023/06/29 03:33:01;;;;;;;0.30;0.30;;;18.60;99.90;;;;;;5134625;28;20031;-71
2023/06/29 03:35:27;;;;;;;0.30;0.30;;;18.60;99.90;;;;;;5134657;28;20039;-71
2023/06/29 03:37:52;;;;;;;0.30;0.30;;;18.60;99.90;;;;;;5134728;28;20035;-72
2023/06/29 03:40:18;;;;;;;0.30;0.30;;;18.60;99.90;;;;;;5134560;28;20035;-71
2023/06/29 03:42:44;;;;;;;0.40;0.40;;;18.60;99.90;;;;;;5134592;28;20070;-72
2023/06/29 03:45:09;;;;;;;0.57;0.57;;;18.60;99.90;;;;;;5134628;28;20042;-70
2023/06/29 03:47:35;;;;;;;0.30;0.30;;;18.60;99.90;;;;;;5135040;28;20118;-72
2023/06/29 03:50:01;;;;;;;0.40;0.40;;;18.70;99.90;;;;;;5134293;28;20143;-72
2023/06/29 03:52:26;;;;;;;0.60;0.60;;;18.60;99.90;;;;;;5134577;28;20398;-72
2023/06/29 03:54:52;;;;;;;0.37;0.37;;;18.70;99.90;;;;;;5134789;28;20529;-72
2023/06/29 03:57:17;;;;;;;0.30;0.30;;;18.70;99.90;;;;;;5134936;28;20075;-70
2023/06/29 03:59:43;;;;;;;0.30;0.30;;;18.70;99.90;;;;;;5134882;28;20039;-72
2023/06/29 04:02:09;;;;;;;0.40;0.40;;;18.70;99.90;;;;;;5134786;28;20039;-72
2023/06/29 04:04:34;;;;;;;0.30;0.30;;;18.80;99.90;;;;;;5134000;28;20085;-70
2023/06/29 04:07:00;;;;;;;0.40;0.40;;;18.80;99.90;;;;;;5134391;28;20051;-70
2023/06/29 04:09:26;;;;;;;0.43;0.43;;;18.80;99.90;;;;;;5134095;28;20039;-72
2023/06/29 04:11:51;;;;;;;0.30;0.30;;;18.80;99.90;;;;;;5134793;28;20065;-72
2023/06/29 04:14:17;;;;;;;0.30;0.30;;;18.80;99.90;;;;;;5134409;28;20046;-70
2023/06/29 04:16:42;;;;;;;0.30;0.30;;;18.80;99.90;;;;;;5134290;28;20039;-71
2023/06/29 04:19:08;;;;;;;0.50;0.50;;;18.80;99.90;;;;;;5134263;28;20041;-71
2023/06/29 04:21:35;;;;;;;0.30;0.30;;;18.80;99.90;;;;;;5134278;28;20122;-71
2023/06/29 04:24:01;;;;;;;0.30;0.30;;;18.80;99.90;;;;;;5134160;28;20046;-71
2023/06/29 04:26:29;;;;;;;0.30;0.30;;;18.80;99.90;;;;;;5134084;28;20049;-71
2023/06/29 04:29:02;;;;;;;0.40;0.40;;;18.80;99.90;;;;;;5134745;28;20031;-70
2023/06/29 04:31:29;;;;;;;0.40;0.40;;;18.80;99.90;;;;;;5134122;28;20039;-71
2023/06/29 04:33:57;;;;;;;0.30;0.30;;;18.80;99.90;;;;;;5134391;28;20047;-70
2023/06/29 04:36:24;;;;;;;0.30;0.30;;;18.90;99.90;;;;;;5134097;28;20088;-72
2023/06/29 04:38:50;;;;;;;0.30;0.30;;;18.90;99.90;;;;;;5133936;28;20512;-70
2023/06/29 04:41:16;;;;;;;0.30;0.30;;;18.90;99.90;;;;;;5136193;27;20065;-72
2023/06/29 04:43:42;;;;;;;0.40;0.40;;;18.90;99.90;;;;;;5137737;27;20071;-71
2023/06/29 04:46:07;;;;;;;0.30;0.30;;;18.90;99.90;;;;;;5137996;27;20340;-70
2023/06/29 04:48:36;;;;;;;0.30;0.30;;;19.00;99.90;;;;;;5137594;27;20035;-71
2023/06/29 04:51:05;;;;;;;0.30;0.30;;;19.00;99.90;;;;;;5137529;27;20073;-70
2023/06/29 04:53:35;;;;;;;0.30;0.30;;;19.00;99.90;;;;;;5137523;27;20047;-70
2023/06/29 04:56:01;;;;;;;0.30;0.30;;;19.10;99.90;;;;;;5137708;27;20042;-70
2023/06/29 04:58:27;;;;;;;0.40;0.40;;;19.20;99.90;;;;;;5137731;27;20039;-72
2023/06/29 05:00:56;;;;;;;0.40;0.40;;;19.20;99.90;;;;;;5137650;27;20142;-71
2023/06/29 05:03:23;;;;;;;0.30;0.30;;;19.30;99.90;;;;;;5137284;27;20051;-71
2023/06/29 05:05:49;;;;;;;0.30;0.30;;;19.40;99.90;;;;;;5137209;27;20122;-72
2023/06/29 05:08:15;;;;;;;0.40;0.40;;;19.50;99.90;;;;;;5137675;27;20085;-72
2023/06/29 05:10:41;;;;;;;0.43;0.43;;;19.50;99.90;;;;;;5137170;27;20039;-71
2023/06/29 05:13:06;;;;;;;1.15;0.73;;;19.60;99.90;;;;;;5137146;27;20111;-70
2023/06/29 05:15:32;;;;;;;0.57;0.57;;;19.70;99.90;;;;;;5137197;27;20039;-72
2023/06/29 05:17:58;;;;;;;0.40;0.40;;;19.80;99.90;;;;;;5137100;27;20459;-70
2023/06/29 05:20:23;;;;;;;0.40;0.40;;;19.90;99.90;;;;;;5137010;27;20072;-71
2023/06/29 05:22:49;;;;;;;0.50;0.50;;;20.00;99.90;;;;;;5136829;27;20031;-71
2023/06/29 05:25:15;;;;;;;0.63;0.50;;;20.10;99.90;;;;;;5136685;27;20067;-71
2023/06/29 05:27:41;;;;;;;0.60;0.60;;;20.20;99.90;;;;;;5136877;27;20047;-71
2023/06/29 05:30:09;;;;;;;0.45;0.43;;;20.30;99.90;;;;;;5136868;27;20043;-71
2023/06/29 05:32:36;;;;;;;0.40;0.40;;;20.30;99.90;;;;;;5136691;27;20039;-72
2023/06/29 05:35:02;;;;;;;0.40;0.40;;;20.40;99.90;;;;;;5136745;27;20046;-72
2023/06/29 05:37:29;;;;;;;0.50;0.50;;;20.50;99.90;;;;;;5136586;27;20043;-70
2023/06/29 05:39:56;;;;;;;0.40;0.40;;;20.60;99.90;;;;;;5136553;27;20035;-72
2023/06/29 05:42:23;;;;;;;0.40;0.40;;;20.60;99.90;;;;;;5136502;27;20039;-70
2023/06/29 05:44:48;;;;;;;1.00;0.88;;;20.70;99.90;;;;;;5136437;27;20122;-71
2023/06/29 05:47:14;;;;;;;0.67;0.63;;;20.70;99.90;;;;;;5136496;27;20126;-71
2023/06/29 05:49:39;;;;;;;0.50;0.50;;;20.80;99.90;;;;;;5136472;27;20373;-72
2023/06/29 05:52:05;;;;;;;1.07;0.80;;;20.80;99.90;;;;;;5135890;27;20043;-71
2023/06/29 05:54:31;;;;;;;0.33;0.33;;;20.90;99.90;;;;;;5137007;27;20080;-72
2023/06/29 05:56:56;;;;;;;0.80;0.80;;;20.90;99.90;;;;;;5136299;27;20049;-71
2023/06/29 05:59:22;;;;;;;3.10;0.97;;;21.00;99.90;;;;;;5136260;27;20039;-72
2023/06/29 06:01:48;;;;;;;0.57;0.57;;;21.00;99.90;;;;;;5136252;27;20070;-71
2023/06/29 06:04:14;;;;;;;0.30;0.30;;;21.10;99.90;;;;;;5135938;27;20059;-71
2023/06/29 06:06:39;;;;;;;0.55;0.55;;;21.10;99.90;;;;;;5135847;27;20485;-72
2023/06/29 06:09:06;;;;;;;1.40;1.07;;;21.20;99.90;;;;;;5135990;27;20046;-71
2023/06/29 06:11:31;;;;;;;0.65;0.50;;;21.20;99.90;;;;;;5135671;27;20455;-71
2023/06/29 06:13:57;;;;;;;0.40;0.40;;;21.30;99.90;;;;;;5135981;27;20179;-72
2023/06/29 06:16:23;;;;;;;0.80;0.80;;;21.40;99.90;;;;;;5135966;27;20479;-70
2023/06/29 06:18:48;;;;;;;0.50;0.50;;;21.40;99.90;;;;;;5135774;27;20462;-71
2023/06/29 06:21:14;;;;;;;0.43;0.43;;;21.50;99.90;;;;;;5135848;27;20042;-72
2023/06/29 06:23:40;;;;;;;0.40;0.40;;;21.50;99.90;;;;;;5135751;27;20088;-71
2023/06/29 06:26:06;;;;;;;0.40;0.40;;;21.60;99.90;;;;;;5134594;27;20135;-71
2023/06/29 06:28:31;;;;;;;1.10;0.97;;;21.60;99.90;;;;;;5135745;27;20081;-71
2023/06/29 06:30:57;;;;;;;0.77;0.77;;;21.60;99.90;;;;;;5135673;27;20031;-71
2023/06/29 06:33:23;;;;;;;1.53;0.87;;;21.50;99.90;;;;;;5135613;27;20111;-71
2023/06/29 06:35:49;;;;;;;0.50;0.50;;;21.50;99.90;;;;;;5135526;27;20041;-71
2023/06/29 06:38:14;;;;;;;2.85;0.65;;;21.50;99.90;;;;;;5135447;27;20039;-72
2023/06/29 06:40:40;;;;;;;0.70;0.57;;;21.40;99.90;;;;;;5135460;27;20043;-71
2023/06/29 06:43:06;;;;;;;0.60;0.60;;;21.40;99.90;;;;;;5135635;27;20032;-71
2023/06/29 06:45:31;;;;;;;1.03;0.93;;;21.40;99.90;;;;;;5135226;27;20088;-71
2023/06/29 06:47:57;;;;;;;0.53;0.53;;;21.40;99.90;;;;;;5135287;27;20043;-71
2023/06/29 06:50:23;;;;;;;0.37;0.37;;;21.40;99.90;;;;;;5135216;27;20032;-72
2023/06/29 06:52:48;;;;;;;1.97;1.20;;;21.50;99.90;;;;;;5135261;27;20042;-71
2023/06/29 06:55:14;;;;;;;0.77;0.77;;;21.40;99.90;;;;;;5135198;27;20035;-72
2023/06/29 06:57:39;;;;;;;0.50;0.50;;;21.40;99.90;;;;;;5134931;27;20035;-71
2023/06/29 07:00:10;;;;;;;0.50;0.50;;;21.40;99.90;;;;;;5135094;27;20104;-71
2023/06/29 07:02:36;;;;;;;0.75;0.65;;;21.50;99.90;;;;;;5134381;27;20058;-71
2023/06/29 07:05:01;;;;;;;0.40;0.40;;;21.50;99.90;;;;;;5134735;27;20045;-71
2023/06/29 07:07:27;;;;;;;0.40;0.40;;;21.50;99.90;;;;;;5135224;27;20387;-71
2023/06/29 07:09:53;;;;;;;0.30;0.30;;;21.60;99.90;;;;;;5134971;27;20043;-71
2023/06/29 07:12:18;;;;;;;0.50;0.50;;;21.60;99.90;;;;;;5134928;27;20043;-72
2023/06/29 07:14:45;;;;;;;0.63;0.63;;;21.60;99.90;;;;;;5135132;27;20061;-71
2023/06/29 07:17:11;;;;;;;0.60;0.60;;;21.60;99.90;;;;;;5134578;27;20043;-72
2023/06/29 07:19:37;;;;;;;0.40;0.40;;;21.70;99.90;;;;;;5134862;27;20039;-71
2023/06/29 07:22:02;;;;;;;0.40;0.40;;;21.80;99.90;;;;;;5134762;27;20043;-72
2023/06/29 07:24:28;;;;;;;1.40;1.40;;;21.90;99.90;;;;;;5134809;27;20043;-71
2023/06/29 07:26:54;;;;;;;0.60;0.60;;;21.90;99.90;;;;;;5116379;28;20035;-71
2023/06/29 07:29:19;;;;;;;0.30;0.30;;;22.00;99.90;;;;;;5134733;28;20035;-71
2023/06/29 07:31:45;;;;;;;0.30;0.30;;;22.00;99.90;;;;;;5134989;28;20092;-71
2023/06/29 07:34:11;;;;;;;0.60;0.60;;;22.10;99.90;;;;;;5134703;28;20037;-71
2023/06/29 07:36:39;;;;;;;1.70;1.40;;;22.00;99.90;;;;;;5134205;28;20039;-71
2023/06/29 07:39:04;;;;;;;0.55;0.55;;;22.00;99.90;;;;;;5134771;28;20088;-71
2023/06/29 07:41:31;;;;;;;0.40;0.40;;;22.10;99.90;;;;;;5134672;28;20051;-71
2023/06/29 07:43:58;;;;;;;0.40;0.40;;;22.10;99.90;;;;;;5134928;28;20117;-71
2023/06/29 07:46:24;;;;;;;;;;;22.20;99.90;;;;;;5134913;28;20087;-71
2023/06/29 07:48:51;;;;;;;0.30;0.30;;;22.30;99.90;;;;;;5134572;28;20017;-71
2023/06/29 07:51:17;;;;;;;0.68;0.50;;;22.40;99.90;;;;;;5134181;28;20122;-71
2023/06/29 07:53:43;;;;;;;0.43;0.43;;;22.40;99.90;;;;;;5134718;28;20065;-71
2023/06/29 07:56:09;;;;;;;0.40;0.40;;;22.50;99.90;;;;;;5134860;28;20118;-71
2023/06/29 07:58:35;;;;;;;0.55;0.55;;;22.60;99.90;;;;;;5134696;28;20126;-71
2023/06/29 08:01:01;;;;;;;0.40;0.40;;;22.50;99.90;;;;;;5134520;28;20043;-72
2023/06/29 08:03:27;;;;;;;0.88;0.88;;;22.60;99.90;;;;;;5134509;28;20112;-71
2023/06/29 08:05:53;;;;;;;0.70;0.70;;;22.70;99.90;;;;;;5134204;28;20412;-71
2023/06/29 08:08:20;;;;;;;0.83;0.83;;;22.80;99.90;;;;;;5134181;28;20034;-71
2023/06/29 08:10:47;;;;;;;0.82;0.82;;;23.00;99.90;;;;;;5134344;28;20043;-72
2023/06/29 08:13:12;;;;;;;;;;;23.20;99.90;;;;;;5134784;28;20523;-71
2023/06/29 08:15:38;;;;;;;0.50;0.50;;;23.30;99.90;;;;;;5137740;27;19915;-71
2023/06/29 08:18:04;;;;;;;0.70;0.70;;;23.40;99.90;;;;;;5138796;27;20343;-71
2023/06/29 08:20:29;;;;;;;0.30;0.30;;;23.40;99.90;;;;;;5138141;27;20074;-71
2023/06/29 08:22:55;;;;;;;1.13;0.93;;;23.30;99.90;;;;;;5138256;27;20039;-71
2023/06/29 08:25:22;;;;;;;0.45;0.45;;;23.30;99.90;;;;;;5137985;27;20046;-71
2023/06/29 08:27:49;;;;;;;;;;;23.30;99.90;;;;;;5138859;27;20039;-71
2023/06/29 08:30:15;;;;;;;1.38;1.27;;;23.30;99.90;;;;;;5137943;27;19927;-71
2023/06/29 08:32:42;;;;;;;1.60;1.33;;;23.30;99.90;;;;;;5137954;27;20035;-71
2023/06/29 08:35:08;;;;;;;1.70;1.35;;;23.30;99.90;;;;;;5137623;27;20040;-71
2023/06/29 08:37:33;;;;;;;0.63;0.52;;;23.30;99.90;;;;;;5138336;27;20031;-71
2023/06/29 08:39:59;;;;;;;1.73;1.60;;;23.30;99.90;;;;;;5138044;27;20073;-71
2023/06/29 08:42:25;;;;;;;0.40;0.40;;;23.30;99.90;;;;;;5137743;27;20467;-71
2023/06/29 08:44:50;;;;;;;0.40;0.40;;;23.30;99.90;;;;;;5137757;27;20470;-71
2023/06/29 08:47:17;;;;;;;0.40;0.40;;;23.40;99.90;;;;;;5137661;27;20043;-71
2023/06/29 08:49:44;;;;;;;0.40;0.40;;;23.40;99.90;;;;;;5137508;27;20027;-71
2023/06/29 08:52:17;;;;;;;1.17;0.85;;;23.40;99.90;;;;;;5137597;27;20390;-71
2023/06/29 08:54:47;;;;;;;0.40;0.40;;;23.40;99.90;;;;;;5137589;27;20125;-71
2023/06/29 08:57:13;;;;;;;0.50;0.50;;;23.40;99.90;;;;;;5137299;27;20039;-71
2023/06/29 08:59:39;;;;;;;0.30;0.30;;;23.30;99.90;;;;;;5137679;27;20043;-72
2023/06/29 09:02:10;;;;;;;0.30;0.30;;;23.40;99.90;;;;;;5137338;27;20502;-71
2023/06/29 09:04:36;;;;;;;0.77;0.60;;;23.50;99.90;;;;;;5137901;27;20055;-71
2023/06/29 09:07:03;;;;;;;0.93;0.93;;;23.70;99.90;;;;;;5137202;27;20383;-71
2023/06/29 09:09:30;;;;;;;1.08;1.02;;;23.80;99.90;;;;;;5137361;27;20090;-72
2023/06/29 09:11:55;;;;;;;;;;;24.00;99.90;;;;;;5137862;27;20054;-72
2023/06/29 09:14:23;;;;;;;0.57;0.57;;;24.10;99.90;;;;;;5137126;27;20355;-71
2023/06/29 09:16:52;;;;;;;1.17;1.08;;;24.10;99.90;;;;;;5137074;27;20039;-72
2023/06/29 09:19:18;;;;;;;0.95;0.73;;;24.20;99.90;;;;;;5137105;27;20042;-72
2023/06/29 09:21:45;;;;;;;;;;;24.20;99.90;;;;;;5137355;27;20092;-71
2023/06/29 09:24:12;;;;;;;0.57;0.57;;;24.30;99.90;;;;;;5136913;27;19919;-71
2023/06/29 09:26:37;;;;;;;;;;;24.30;99.90;;;;;;5136112;27;20769;-71
2023/06/29 09:29:04;;;;;;;0.85;0.68;;;24.30;99.90;;;;;;5136945;27;19921;-72
2023/06/29 09:31:35;;;;;;;0.52;0.52;;;24.30;99.90;;;;;;5136819;27;20085;-72
2023/06/29 09:34:17;;;;;;;0.30;0.30;;;24.30;99.90;;;;;;5136826;27;20105;-72
2023/06/29 09:36:42;;;;;;;1.50;1.15;;;24.50;99.90;;;;;;5136659;27;20463;-71
2023/06/29 09:39:09;;;;;;;0.53;0.53;;;24.50;99.90;;;;;;5136871;27;20129;-72
2023/06/29 09:41:47;;;;;;;;;;;24.50;99.90;;;;;;5153139;27;20444;-72
2023/06/29 09:44:14;;;;;;;;;;;24.50;99.90;;;;;;5136687;27;19919;-71
2023/06/29 09:46:42;;;;;;;0.60;0.60;;;24.50;99.90;;;;;;5136390;27;19968;-72
2023/06/29 09:49:09;;;;;;;1.25;1.23;;;24.50;99.90;;;;;;5136393;27;20039;-71
2023/06/29 09:51:34;;;;;;;0.63;0.63;;;24.50;99.90;;;;;;5136395;27;20114;-71
2023/06/29 09:54:03;;;;;;;0.43;0.40;;;24.60;99.90;;;;;;5136389;27;20085;-71
2023/06/29 09:56:33;;;;;;;0.65;0.65;;;24.60;99.90;;;;;;5135992;27;20035;-72
2023/06/29 09:59:01;;;;;;;4.22;1.33;;;24.60;99.90;;;;;;5118287;27;20082;-72
2023/06/29 10:01:28;;;;;;;0.40;0.40;;;24.50;99.90;;;;;;5136312;27;20039;-71
2023/06/29 10:03:57;;;;;;;1.23;1.13;;;24.30;99.90;;;;;;5136246;27;20062;-72
2023/06/29 10:06:33;;;;;;;0.47;0.47;;;24.30;99.90;;;;;;5135985;27;20039;-72
2023/06/29 10:09:00;;;;;;;0.30;0.30;;;24.20;99.90;;;;;;5136145;27;20122;-71
2023/06/29 10:11:27;;;;;;;;;;;24.20;99.90;;;;;;5136316;27;20053;-72
2023/06/29 10:13:57;;;;;;;0.30;0.30;;;24.10;99.90;;;;;;5135931;27;19919;-72
2023/06/29 10:16:23;;;;;;;0.85;0.75;;;24.00;99.90;;;;;;5136259;27;20039;-72
2023/06/29 10:18:53;;;;;;;0.65;0.65;;;23.90;99.90;;;;;;5135850;27;20062;-72
2023/06/29 10:21:19;;;;;;;0.80;0.60;;;23.90;99.90;;;;;;5136286;27;20042;-72
2023/06/29 10:23:47;;;;;;;0.45;0.43;;;23.80;99.90;;;;;;5135704;27;20042;-71
2023/06/29 10:26:13;;;;;;;0.30;0.30;;;23.80;99.90;;;;;;5136124;27;20039;-72
2023/06/29 10:28:39;;;;;;;0.47;0.47;;;23.70;99.90;;;;;;5135876;27;20039;-71
2023/06/29 10:31:05;;;;;;;2.33;0.65;;;23.60;99.90;;;;;;5134459;27;20352;-71
2023/06/29 10:33:30;;;;;;;0.30;0.30;;;23.50;99.90;;;;;;5135471;27;20050;-71
2023/06/29 10:35:57;;;;;;;0.70;0.70;;;23.40;99.90;;;;;;5135490;27;20103;-72
2023/06/29 10:38:34;;;;;;;2.95;0.85;;;23.30;99.90;;;;;;5135357;27;20479;-72
2023/06/29 10:41:00;;;;;;;1.07;0.97;;;23.20;99.90;;;;;;5135774;27;20476;-72
2023/06/29 10:43:26;;;;;;;2.53;1.85;;;23.10;99.90;;;;;;5135623;27;20134;-71
2023/06/29 10:45:52;;;;;;;1.15;1.05;;;23.00;99.90;;;;;;5135258;27;20039;-72
2023/06/29 10:48:19;;;;;;;0.90;0.87;;;23.00;99.90;;;;;;5135521;27;20043;-72
2023/06/29 10:50:47;;;;;;;1.08;0.88;;;22.90;99.90;;;;;;5135259;27;20277;-71
2023/06/29 10:53:16;;;;;;;0.50;0.50;;;22.80;99.90;;;;;;5135182;27;20050;-72
2023/06/29 10:55:49;;;;;;;0.55;0.52;;;22.80;99.90;;;;;;5135325;27;20043;-71
2023/06/29 10:58:22;;;;;;;0.55;0.55;;;22.70;99.90;;;;;;5135462;27;20039;-71
2023/06/29 11:00:49;;;;;;;2.47;2.35;;;22.70;99.90;;;;;;5135133;27;20031;-72
2023/06/29 11:03:15;;;;;;;0.82;0.82;;;22.60;99.90;;;;;;5135096;27;20463;-71
2023/06/29 11:05:43;;;;;;;0.60;0.60;;;22.60;99.90;;;;;;5134596;27;20523;-71
2023/06/29 11:08:09;;;;;;;0.98;0.88;;;22.50;99.90;;;;;;5117091;27;20092;-73
2023/06/29 11:10:36;;;;;;;2.60;0.77;;;22.60;99.90;;;;;;5135337;27;20031;-72
2023/06/29 11:13:06;;;;;;;;;;;22.60;99.90;;;;;;5135392;27;20406;-72
2023/06/29 11:15:33;;;;;;;1.02;0.93;;;22.60;99.90;;;;;;5134773;27;19915;-71
2023/06/29 11:18:05;;;;;;;0.50;0.50;;;22.60;99.90;;;;;;5134829;27;20047;-71
2023/06/29 11:20:33;;;;;;;0.52;0.40;;;22.60;99.90;;;;;;5135329;27;20088;-72
2023/06/29 11:22:59;;;;;;;0.40;0.40;;;22.70;99.90;;;;;;5134848;27;20031;-71
2023/06/29 11:25:27;;;;;;;0.45;0.45;;;22.90;99.90;;;;;;5134683;27;20035;-71
2023/06/29 11:27:53;;;;;;;1.55;1.00;;;23.10;99.90;;;;;;5134741;28;20439;-71
2023/06/29 11:30:20;;;;;;;3.70;1.20;;;23.20;99.90;;;;;;5134794;28;20122;-72
2023/06/29 11:32:50;;;;;;;1.45;1.35;;;23.40;99.90;;;;;;5134637;28;20373;-72
2023/06/29 11:35:20;;;;;;;2.15;1.58;;;23.50;99.90;;;;;;5135205;28;20047;-71
2023/06/29 11:37:45;;;;;;;0.60;0.60;;;23.60;99.90;;;;;;5134368;28;20487;-71
2023/06/29 11:40:22;;;;;;;0.60;0.60;;;23.70;99.90;;;;;;5134676;28;20071;-72
2023/06/29 11:42:49;;;;;;;0.73;0.73;;;23.80;99.90;;;;;;5134681;28;20447;-71
2023/06/29 11:45:16;;;;;;;1.10;0.77;;;24.00;99.90;;;;;;5134486;28;20035;-72
2023/06/29 11:47:51;;;;;;;0.98;0.80;;;24.20;99.90;;;;;;5135264;28;20043;-71
2023/06/29 11:50:17;;;;;;;0.50;0.50;;;24.30;99.90;;;;;;5137114;27;20091;-71
2023/06/29 11:52:44;;;;;;;0.85;0.85;;;24.40;99.90;;;;;;5138782;27;20078;-71
2023/06/29 11:55:13;;;;;;;0.57;0.57;;;24.50;99.90;;;;;;5120658;27;20039;-72
2023/06/29 11:57:40;;;;;;;1.38;1.13;;;24.70;99.90;;;;;;5138672;27;20536;-72
2023/06/29 12:00:29;;;;;;;1.55;1.10;;;25.00;99.90;;;;;;5138547;27;20051;-72
2023/06/29 12:02:54;;;;;;;1.23;0.85;;;25.30;99.90;;;;;;5138199;27;20040;-71
2023/06/29 12:05:28;;;;;;;0.30;0.30;;;25.50;99.90;;;;;;5138618;27;20042;-72
2023/06/29 12:07:54;;;;;;;0.40;0.40;;;25.70;99.90;;;;;;5138707;27;20049;-72
2023/06/29 12:10:21;;;;;;;3.15;1.63;;;25.90;99.90;;;;;;5138319;27;20046;-72
2023/06/29 12:12:55;;;;;;;0.40;0.40;;;26.00;99.90;;;;;;5138381;27;20475;-71
2023/06/29 12:15:22;;;;;;;0.75;0.55;;;26.00;99.90;;;;;;5138650;27;20085;-72
2023/06/29 12:17:53;;;;;;;0.52;0.52;;;25.90;99.90;;;;;;5138331;27;20086;-72
2023/06/29 12:20:19;;;;;;;0.75;0.70;;;26.00;99.90;;;;;;5137964;27;20039;-72
2023/06/29 12:22:46;;;;;;;1.20;1.10;;;26.20;99.90;;;;;;5138048;27;20092;-72
2023/06/29 12:25:15;;;;;;;1.23;1.13;;;26.20;99.90;;;;;;5119817;27;20413;-71
2023/06/29 12:27:46;;;;;;;0.40;0.40;;;26.20;99.90;;;;;;5138525;27;20047;-72
2023/06/29 12:30:18;;;;;;;1.25;0.95;;;26.10;99.90;;;;;;5137715;27;20408;-72
2023/06/29 12:32:48;;;;;;;1.85;1.50;;;26.10;99.90;;;;;;5137898;27;20483;-72
2023/06/29 12:35:14;;;;;;;0.75;0.75;;;26.10;99.90;;;;;;5137982;27;20058;-71
2023/06/29 12:37:40;;;;;;;1.20;0.95;;;26.10;99.90;;;;;;5119532;27;20075;-72
2023/06/29 12:40:07;;;;;;;0.55;0.55;;;26.20;99.90;;;;;;5138265;27;20081;-71
2023/06/29 12:42:33;;;;;;;0.40;0.40;;;26.30;99.90;;;;;;5138164;27;20039;-72
2023/06/29 12:45:00;;;;;;;1.38;0.88;;;26.10;99.90;;;;;;5137686;27;20043;-72
2023/06/29 12:47:27;;;;;;;0.63;0.63;;;26.10;99.90;;;;;;5137688;27;20039;-71